sensor_id;sensor_type;location;lat;lon;timestamp;pressure;altitude;pressure_sealevel;temperature;humidity
34979;BME280;21185;50.978;13.720;2023-04-22T00:00:29;98078.16;;;11.74;55.09
34979;BME280;21185;50.978;13.720;2023-04-22T00:05:31;98077.06;;;11.68;55.13
34979;BME280;21185;50.978;13.720;2023-04-22T00:10:33;98079.56;;;11.62;55.03
34979;BME280;21185;50.978;13.720;2023-04-22T00:15:36;98070.84;;;11.55;55.32
34979;BME280;21185;50.978;13.720;2023-04-22T00:20:40;98060.31;;;11.48;55.15
34979;BME280;21185;50.978;13.720;2023-04-22T00:25:43;98060.84;;;11.44;55.38
34979;BME280;21185;50.978;13.720;2023-04-22T00:30:45;98056.16;;;11.39;55.47
34979;BME280;21185;50.978;13.720;2023-04-22T00:35:48;98054.25;;;11.33;55.64
34979;BME280;21185;50.978;13.720;2023-04-22T00:40:50;98052.00;;;11.30;55.69
34979;BME280;21185;50.978;13.720;2023-04-22T00:45:52;98046.34;;;11.26;55.73
34979;BME280;21185;50.978;13.720;2023-04-22T00:50:57;98057.25;;;11.22;55.80
34979;BME280;21185;50.978;13.720;2023-04-22T00:56:00;98054.19;;;11.18;55.92
34979;BME280;21185;50.978;13.720;2023-04-22T01:01:02;98050.13;;;11.16;55.92
34979;BME280;21185;50.978;13.720;2023-04-22T01:06:04;98048.88;;;11.12;55.94
34979;BME280;21185;50.978;13.720;2023-04-22T01:11:06;98047.59;;;11.08;56.08
34979;BME280;21185;50.978;13.720;2023-04-22T01:16:08;98049.06;;;11.02;56.10
34979;BME280;21185;50.978;13.720;2023-04-22T01:21:11;98048.59;;;10.98;56.16
34979;BME280;21185;50.978;13.720;2023-04-22T01:26:13;98047.97;;;10.96;56.11
34979;BME280;21185;50.978;13.720;2023-04-22T01:31:15;98037.13;;;10.93;56.28
34979;BME280;21185;50.978;13.720;2023-04-22T01:36:17;98046.22;;;10.89;56.41
34979;BME280;21185;50.978;13.720;2023-04-22T01:41:19;98028.38;;;10.86;56.28
34979;BME280;21185;50.978;13.720;2023-04-22T01:46:21;98033.09;;;10.82;56.50
34979;BME280;21185;50.978;13.720;2023-04-22T01:51:26;98022.25;;;10.79;56.65
34979;BME280;21185;50.978;13.720;2023-04-22T01:56:30;98030.22;;;10.77;56.62
34979;BME280;21185;50.978;13.720;2023-04-22T02:01:32;98025.19;;;10.76;56.75
34979;BME280;21185;50.978;13.720;2023-04-22T02:06:33;98026.16;;;10.75;56.69
34979;BME280;21185;50.978;13.720;2023-04-22T02:11:39;98014.97;;;10.74;56.59
34979;BME280;21185;50.978;13.720;2023-04-22T02:16:41;98017.75;;;10.73;56.83
34979;BME280;21185;50.978;13.720;2023-04-22T02:21:44;98016.13;;;10.71;56.71
34979;BME280;21185;50.978;13.720;2023-04-22T02:26:45;98010.47;;;10.68;56.99
34979;BME280;21185;50.978;13.720;2023-04-22T02:31:48;98006.75;;;10.62;56.97
34979;BME280;21185;50.978;13.720;2023-04-22T02:36:50;98006.63;;;10.56;56.96
34979;BME280;21185;50.978;13.720;2023-04-22T02:41:52;98009.56;;;10.53;57.08
34979;BME280;21185;50.978;13.720;2023-04-22T02:46:55;98005.69;;;10.49;57.06
34979;BME280;21185;50.978;13.720;2023-04-22T02:51:57;97997.59;;;10.44;57.19
34979;BME280;21185;50.978;13.720;2023-04-22T02:56:59;97999.53;;;10.42;57.16
34979;BME280;21185;50.978;13.720;2023-04-22T03:02:01;98000.34;;;10.42;57.35
34979;BME280;21185;50.978;13.720;2023-04-22T03:07:24;97994.34;;;10.42;57.33
34979;BME280;21185;50.978;13.720;2023-04-22T03:12:26;97992.75;;;10.41;57.39
34979;BME280;21185;50.978;13.720;2023-04-22T03:17:28;97990.97;;;10.41;57.63
34979;BME280;21185;50.978;13.720;2023-04-22T03:22:30;97986.56;;;10.42;57.27
34979;BME280;21185;50.978;13.720;2023-04-22T03:27:34;97981.38;;;10.42;57.52
34979;BME280;21185;50.978;13.720;2023-04-22T03:32:36;97978.34;;;10.38;57.56
34979;BME280;21185;50.978;13.720;2023-04-22T03:37:53;97977.88;;;10.34;57.62
34979;BME280;21185;50.978;13.720;2023-04-22T03:43:01;97982.44;;;10.32;57.54
34979;BME280;21185;50.978;13.720;2023-04-22T03:48:05;97978.22;;;10.31;57.70
34979;BME280;21185;50.978;13.720;2023-04-22T03:53:14;97978.38;;;10.30;57.66
34979;BME280;21185;50.978;13.720;2023-04-22T03:58:18;97976.75;;;10.29;57.97
34979;BME280;21185;50.978;13.720;2023-04-22T04:03:21;97984.38;;;10.30;57.88
34979;BME280;21185;50.978;13.720;2023-04-22T04:08:26;97975.63;;;10.31;57.76
34979;BME280;21185;50.978;13.720;2023-04-22T04:13:28;97974.66;;;10.32;58.03
34979;BME280;21185;50.978;13.720;2023-04-22T04:18:53;97964.75;;;10.36;58.04
34979;BME280;21185;50.978;13.720;2023-04-22T04:23:57;97969.88;;;10.44;58.07
34979;BME280;21185;50.978;13.720;2023-04-22T04:29:03;97968.03;;;10.53;57.94
34979;BME280;21185;50.978;13.720;2023-04-22T04:34:06;97976.44;;;10.63;57.92
34979;BME280;21185;50.978;13.720;2023-04-22T04:39:11;97965.84;;;10.73;57.87
34979;BME280;21185;50.978;13.720;2023-04-22T04:44:13;97970.66;;;10.84;57.79
34979;BME280;21185;50.978;13.720;2023-04-22T04:49:16;97968.63;;;10.94;57.81
34979;BME280;21185;50.978;13.720;2023-04-22T04:54:30;97965.00;;;11.03;57.83
34979;BME280;21185;50.978;13.720;2023-04-22T04:59:33;97967.56;;;11.11;57.96
34979;BME280;21185;50.978;13.720;2023-04-22T05:04:35;97974.47;;;11.19;58.02
34979;BME280;21185;50.978;13.720;2023-04-22T05:09:38;97978.97;;;11.25;57.99
34979;BME280;21185;50.978;13.720;2023-04-22T05:14:42;97975.69;;;11.31;58.04
34979;BME280;21185;50.978;13.720;2023-04-22T05:19:46;97983.44;;;11.39;58.32
34979;BME280;21185;50.978;13.720;2023-04-22T05:24:49;97981.56;;;11.48;58.43
34979;BME280;21185;50.978;13.720;2023-04-22T05:29:52;97986.69;;;11.56;58.52
34979;BME280;21185;50.978;13.720;2023-04-22T05:34:59;97988.06;;;11.66;58.37
34979;BME280;21185;50.978;13.720;2023-04-22T05:40:01;97981.81;;;11.76;58.45
34979;BME280;21185;50.978;13.720;2023-04-22T05:45:05;97985.00;;;11.86;58.55
34979;BME280;21185;50.978;13.720;2023-04-22T05:50:07;97982.78;;;11.97;58.54
34979;BME280;21185;50.978;13.720;2023-04-22T05:55:16;97975.97;;;12.11;58.57
34979;BME280;21185;50.978;13.720;2023-04-22T06:00:19;97984.31;;;12.21;58.56
34979;BME280;21185;50.978;13.720;2023-04-22T06:05:34;97983.69;;;12.34;58.41
34979;BME280;21185;50.978;13.720;2023-04-22T06:10:36;97984.66;;;12.48;58.26
34979;BME280;21185;50.978;13.720;2023-04-22T06:15:38;97984.47;;;12.64;58.13
34979;BME280;21185;50.978;13.720;2023-04-22T06:20:41;97989.47;;;12.80;57.95
34979;BME280;21185;50.978;13.720;2023-04-22T06:25:43;97980.00;;;12.94;57.82
34979;BME280;21185;50.978;13.720;2023-04-22T06:30:45;97983.38;;;13.09;57.67
34979;BME280;21185;50.978;13.720;2023-04-22T06:35:47;97987.38;;;13.26;57.57
34979;BME280;21185;50.978;13.720;2023-04-22T06:40:48;97982.91;;;13.42;57.25
34979;BME280;21185;50.978;13.720;2023-04-22T06:46:01;97989.28;;;13.60;57.09
34979;BME280;21185;50.978;13.720;2023-04-22T06:51:35;97984.59;;;13.77;56.47
34979;BME280;21185;50.978;13.720;2023-04-22T06:56:37;97989.97;;;13.97;56.42
34979;BME280;21185;50.978;13.720;2023-04-22T07:01:39;97988.88;;;14.13;56.25
34979;BME280;21185;50.978;13.720;2023-04-22T07:06:42;97984.13;;;14.30;56.00
34979;BME280;21185;50.978;13.720;2023-04-22T07:11:44;97986.28;;;14.47;56.36
34979;BME280;21185;50.978;13.720;2023-04-22T07:16:51;97981.53;;;14.64;55.99
34979;BME280;21185;50.978;13.720;2023-04-22T07:21:53;97981.19;;;14.80;55.48
34979;BME280;21185;50.978;13.720;2023-04-22T07:26:56;97968.97;;;14.94;55.27
34979;BME280;21185;50.978;13.720;2023-04-22T07:31:58;97973.03;;;15.10;55.30
34979;BME280;21185;50.978;13.720;2023-04-22T07:37:00;97973.66;;;15.25;54.83
34979;BME280;21185;50.978;13.720;2023-04-22T07:42:02;97966.63;;;15.39;54.71
34979;BME280;21185;50.978;13.720;2023-04-22T07:47:04;97966.25;;;15.55;54.52
34979;BME280;21185;50.978;13.720;2023-04-22T07:52:08;97965.03;;;15.71;54.14
34979;BME280;21185;50.978;13.720;2023-04-22T07:57:10;97961.41;;;15.85;53.86
34979;BME280;21185;50.978;13.720;2023-04-22T08:02:13;97958.56;;;16.00;53.36
34979;BME280;21185;50.978;13.720;2023-04-22T08:07:15;97953.91;;;16.15;52.92
34979;BME280;21185;50.978;13.720;2023-04-22T08:12:33;97954.03;;;16.33;52.30
34979;BME280;21185;50.978;13.720;2023-04-22T08:17:36;97956.41;;;16.48;51.76
34979;BME280;21185;50.978;13.720;2023-04-22T08:22:38;97951.13;;;16.61;51.62
34979;BME280;21185;50.978;13.720;2023-04-22T08:27:40;97961.56;;;16.74;51.06
34979;BME280;21185;50.978;13.720;2023-04-22T08:32:42;97949.00;;;16.90;50.79
34979;BME280;21185;50.978;13.720;2023-04-22T08:37:44;97952.13;;;17.05;50.24
34979;BME280;21185;50.978;13.720;2023-04-22T08:42:47;97940.72;;;17.24;51.14
34979;BME280;21185;50.978;13.720;2023-04-22T08:47:49;97949.66;;;17.41;51.16
34979;BME280;21185;50.978;13.720;2023-04-22T08:52:51;97949.41;;;17.49;50.02
34979;BME280;21185;50.978;13.720;2023-04-22T08:57:59;97942.50;;;17.55;48.97
34979;BME280;21185;50.978;13.720;2023-04-22T09:03:05;97935.56;;;17.67;49.33
34979;BME280;21185;50.978;13.720;2023-04-22T09:08:09;97941.94;;;17.78;49.30
34979;BME280;21185;50.978;13.720;2023-04-22T09:13:12;97939.81;;;17.87;48.52
34979;BME280;21185;50.978;13.720;2023-04-22T09:18:18;97936.28;;;17.99;48.66
34979;BME280;21185;50.978;13.720;2023-04-22T09:23:21;97931.31;;;18.09;48.49
34979;BME280;21185;50.978;13.720;2023-04-22T09:28:24;97925.78;;;18.18;47.99
34979;BME280;21185;50.978;13.720;2023-04-22T09:33:26;97919.22;;;18.27;48.00
34979;BME280;21185;50.978;13.720;2023-04-22T09:38:30;97910.66;;;18.31;47.99
34979;BME280;21185;50.978;13.720;2023-04-22T09:43:32;97915.25;;;18.36;47.62
34979;BME280;21185;50.978;13.720;2023-04-22T09:48:41;97902.41;;;18.46;47.33
34979;BME280;21185;50.978;13.720;2023-04-22T09:53:44;97901.53;;;18.52;47.49
34979;BME280;21185;50.978;13.720;2023-04-22T09:58:51;97897.59;;;18.61;47.01
34979;BME280;21185;50.978;13.720;2023-04-22T10:03:53;97899.41;;;18.61;46.19
34979;BME280;21185;50.978;13.720;2023-04-22T10:08:57;97896.94;;;18.66;46.16
34979;BME280;21185;50.978;13.720;2023-04-22T10:13:59;97885.41;;;18.67;45.71
34979;BME280;21185;50.978;13.720;2023-04-22T10:19:03;97887.72;;;18.75;45.92
34979;BME280;21185;50.978;13.720;2023-04-22T10:24:14;97885.00;;;18.82;45.17
34979;BME280;21185;50.978;13.720;2023-04-22T10:29:19;97885.56;;;18.84;45.36
34979;BME280;21185;50.978;13.720;2023-04-22T10:34:22;97890.94;;;18.89;45.15
34979;BME280;21185;50.978;13.720;2023-04-22T10:39:25;97880.44;;;18.89;44.70
34979;BME280;21185;50.978;13.720;2023-04-22T10:44:29;97881.59;;;18.93;44.97
34979;BME280;21185;50.978;13.720;2023-04-22T10:49:45;97882.75;;;18.97;44.72
34979;BME280;21185;50.978;13.720;2023-04-22T10:59:53;97877.38;;;19.03;45.09
34979;BME280;21185;50.978;13.720;2023-04-22T11:05:24;97867.09;;;19.02;44.14
34979;BME280;21185;50.978;13.720;2023-04-22T11:15:47;97864.25;;;19.03;44.53
34979;BME280;21185;50.978;13.720;2023-04-22T11:20:51;97868.69;;;19.03;44.54
34979;BME280;21185;50.978;13.720;2023-04-22T11:25:59;97868.81;;;19.08;44.45
34979;BME280;21185;50.978;13.720;2023-04-22T11:31:07;97849.72;;;19.13;44.74
34979;BME280;21185;50.978;13.720;2023-04-22T11:36:11;97856.50;;;19.20;44.61
34979;BME280;21185;50.978;13.720;2023-04-22T11:41:20;97854.88;;;19.19;44.02
34979;BME280;21185;50.978;13.720;2023-04-22T11:46:30;97842.88;;;19.23;44.51
34979;BME280;21185;50.978;13.720;2023-04-22T11:51:32;97839.00;;;19.26;44.15
34979;BME280;21185;50.978;13.720;2023-04-22T11:56:36;97829.84;;;19.28;44.48
34979;BME280;21185;50.978;13.720;2023-04-22T12:01:40;97832.94;;;19.25;43.62
34979;BME280;21185;50.978;13.720;2023-04-22T12:06:43;97840.03;;;19.25;43.67
34979;BME280;21185;50.978;13.720;2023-04-22T12:11:47;97837.84;;;19.22;43.56
34979;BME280;21185;50.978;13.720;2023-04-22T12:16:51;97833.84;;;19.19;42.94
34979;BME280;21185;50.978;13.720;2023-04-22T12:21:56;97818.41;;;19.23;42.83
34979;BME280;21185;50.978;13.720;2023-04-22T12:26:58;97825.63;;;19.27;42.80
34979;BME280;21185;50.978;13.720;2023-04-22T12:32:00;97817.50;;;19.29;42.02
34979;BME280;21185;50.978;13.720;2023-04-22T12:37:02;97820.25;;;19.34;42.40
34979;BME280;21185;50.978;13.720;2023-04-22T12:42:05;97821.03;;;19.34;42.38
34979;BME280;21185;50.978;13.720;2023-04-22T12:47:07;97811.66;;;19.38;42.01
34979;BME280;21185;50.978;13.720;2023-04-22T12:52:10;97805.25;;;19.34;41.81
34979;BME280;21185;50.978;13.720;2023-04-22T12:57:12;97810.41;;;19.41;41.71
34979;BME280;21185;50.978;13.720;2023-04-22T13:02:14;97800.22;;;19.45;41.48
34979;BME280;21185;50.978;13.720;2023-04-22T13:07:18;97801.72;;;19.40;41.27
34979;BME280;21185;50.978;13.720;2023-04-22T13:12:20;97783.28;;;19.40;41.11
34979;BME280;21185;50.978;13.720;2023-04-22T13:17:22;97794.16;;;19.44;40.77
34979;BME280;21185;50.978;13.720;2023-04-22T13:22:24;97787.28;;;19.43;40.48
34979;BME280;21185;50.978;13.720;2023-04-22T13:27:26;97785.00;;;19.47;40.54
34979;BME280;21185;50.978;13.720;2023-04-22T13:32:28;97778.72;;;19.48;40.49
34979;BME280;21185;50.978;13.720;2023-04-22T13:37:30;97776.06;;;19.48;40.67
34979;BME280;21185;50.978;13.720;2023-04-22T13:42:32;97765.44;;;19.42;40.25
34979;BME280;21185;50.978;13.720;2023-04-22T13:47:34;97762.59;;;19.44;40.41
34979;BME280;21185;50.978;13.720;2023-04-22T13:52:37;97761.31;;;19.47;40.45
34979;BME280;21185;50.978;13.720;2023-04-22T13:57:39;97754.13;;;19.54;40.48
34979;BME280;21185;50.978;13.720;2023-04-22T14:02:41;97753.91;;;19.55;40.41
34979;BME280;21185;50.978;13.720;2023-04-22T14:07:52;97744.41;;;19.54;40.04
34979;BME280;21185;50.978;13.720;2023-04-22T14:12:55;97738.91;;;19.56;40.24
34979;BME280;21185;50.978;13.720;2023-04-22T14:18:03;97727.22;;;19.63;39.81
34979;BME280;21185;50.978;13.720;2023-04-22T14:23:05;97716.19;;;19.78;39.62
34979;BME280;21185;50.978;13.720;2023-04-22T14:28:07;97712.94;;;19.88;39.65
34979;BME280;21185;50.978;13.720;2023-04-22T14:33:09;97715.44;;;19.94;39.72
34979;BME280;21185;50.978;13.720;2023-04-22T14:38:11;97708.00;;;19.91;39.54
34979;BME280;21185;50.978;13.720;2023-04-22T14:43:19;97706.19;;;19.92;39.79
34979;BME280;21185;50.978;13.720;2023-04-22T14:48:21;97706.28;;;19.97;40.11
34979;BME280;21185;50.978;13.720;2023-04-22T14:53:28;97704.53;;;20.02;40.14
34979;BME280;21185;50.978;13.720;2023-04-22T14:58:30;97701.13;;;20.19;40.06
34979;BME280;21185;50.978;13.720;2023-04-22T15:03:32;97691.56;;;20.29;40.13
34979;BME280;21185;50.978;13.720;2023-04-22T15:08:36;97690.75;;;20.29;40.30
34979;BME280;21185;50.978;13.720;2023-04-22T15:13:39;97686.84;;;20.31;40.60
34979;BME280;21185;50.978;13.720;2023-04-22T15:18:41;97677.81;;;20.27;40.53
34979;BME280;21185;50.978;13.720;2023-04-22T15:23:43;97677.19;;;20.20;40.29
34979;BME280;21185;50.978;13.720;2023-04-22T15:28:45;97667.34;;;20.16;40.42
34979;BME280;21185;50.978;13.720;2023-04-22T15:33:47;97670.16;;;20.09;40.16
34979;BME280;21185;50.978;13.720;2023-04-22T15:38:53;97655.63;;;20.07;40.41
34979;BME280;21185;50.978;13.720;2023-04-22T15:43:58;97651.63;;;20.04;40.58
34979;BME280;21185;50.978;13.720;2023-04-22T15:49:00;97652.09;;;20.01;40.55
34979;BME280;21185;50.978;13.720;2023-04-22T15:54:02;97653.03;;;19.95;40.19
34979;BME280;21185;50.978;13.720;2023-04-22T15:59:04;97651.44;;;19.94;40.75
34979;BME280;21185;50.978;13.720;2023-04-22T16:04:06;97649.53;;;19.89;41.03
34979;BME280;21185;50.978;13.720;2023-04-22T16:09:08;97651.75;;;19.81;41.09
34979;BME280;21185;50.978;13.720;2023-04-22T16:14:11;97643.28;;;19.79;41.11
34979;BME280;21185;50.978;13.720;2023-04-22T16:19:13;97638.00;;;19.79;41.48
34979;BME280;21185;50.978;13.720;2023-04-22T16:24:15;97634.81;;;19.77;41.46
34979;BME280;21185;50.978;13.720;2023-04-22T16:29:17;97621.41;;;19.78;41.45
34979;BME280;21185;50.978;13.720;2023-04-22T16:34:20;97621.41;;;19.78;41.87
34979;BME280;21185;50.978;13.720;2023-04-22T16:39:22;97617.56;;;19.69;41.60
34979;BME280;21185;50.978;13.720;2023-04-22T16:44:23;97614.06;;;19.63;41.66
34979;BME280;21185;50.978;13.720;2023-04-22T16:49:25;97614.84;;;19.64;41.77
34979;BME280;21185;50.978;13.720;2023-04-22T16:54:27;97611.19;;;19.65;41.56
34979;BME280;21185;50.978;13.720;2023-04-22T16:59:30;97610.38;;;19.64;41.23
34979;BME280;21185;50.978;13.720;2023-04-22T17:04:32;97607.00;;;19.52;41.46
34979;BME280;21185;50.978;13.720;2023-04-22T17:09:35;97608.53;;;19.36;41.75
34979;BME280;21185;50.978;13.720;2023-04-22T17:14:37;97611.19;;;19.25;42.17
34979;BME280;21185;50.978;13.720;2023-04-22T17:19:38;97616.81;;;19.17;42.11
34979;BME280;21185;50.978;13.720;2023-04-22T17:24:41;97611.91;;;19.08;42.00
34979;BME280;21185;50.978;13.720;2023-04-22T17:29:43;97609.41;;;19.02;42.61
34979;BME280;21185;50.978;13.720;2023-04-22T17:34:45;97605.53;;;18.93;42.38
34979;BME280;21185;50.978;13.720;2023-04-22T17:39:46;97608.19;;;18.81;42.92
34979;BME280;21185;50.978;13.720;2023-04-22T17:44:48;97614.25;;;18.70;43.07
34979;BME280;21185;50.978;13.720;2023-04-22T17:49:51;97618.91;;;18.56;42.85
34979;BME280;21185;50.978;13.720;2023-04-22T17:54:53;97614.13;;;18.41;43.45
34979;BME280;21185;50.978;13.720;2023-04-22T17:59:55;97621.41;;;18.28;43.76
34979;BME280;21185;50.978;13.720;2023-04-22T18:04:57;97624.03;;;18.16;43.98
34979;BME280;21185;50.978;13.720;2023-04-22T18:09:58;97627.66;;;18.03;44.24
34979;BME280;21185;50.978;13.720;2023-04-22T18:15:00;97627.63;;;17.92;44.22
34979;BME280;21185;50.978;13.720;2023-04-22T18:20:03;97631.81;;;17.81;44.54
34979;BME280;21185;50.978;13.720;2023-04-22T18:25:18;97639.06;;;17.67;44.72
34979;BME280;21185;50.978;13.720;2023-04-22T18:30:24;97643.09;;;17.52;45.38
34979;BME280;21185;50.978;13.720;2023-04-22T18:35:26;97648.50;;;17.38;45.42
34979;BME280;21185;50.978;13.720;2023-04-22T18:40:28;97652.06;;;17.26;45.81
34979;BME280;21185;50.978;13.720;2023-04-22T18:45:30;97650.19;;;17.14;46.08
34979;BME280;21185;50.978;13.720;2023-04-22T18:50:31;97652.75;;;17.03;46.38
34979;BME280;21185;50.978;13.720;2023-04-22T18:55:33;97656.66;;;16.94;46.53
34979;BME280;21185;50.978;13.720;2023-04-22T19:00:35;97655.94;;;16.87;46.75
34979;BME280;21185;50.978;13.720;2023-04-22T19:05:37;97655.19;;;16.79;47.03
34979;BME280;21185;50.978;13.720;2023-04-22T19:10:39;97652.41;;;16.74;47.44
34979;BME280;21185;50.978;13.720;2023-04-22T19:15:41;97649.66;;;16.69;47.72
34979;BME280;21185;50.978;13.720;2023-04-22T19:20:43;97651.09;;;16.65;47.74
34979;BME280;21185;50.978;13.720;2023-04-22T19:25:46;97648.88;;;16.62;47.76
34979;BME280;21185;50.978;13.720;2023-04-22T19:30:49;97645.66;;;16.60;47.69
34979;BME280;21185;50.978;13.720;2023-04-22T19:35:51;97643.28;;;16.59;47.95
34979;BME280;21185;50.978;13.720;2023-04-22T19:40:53;97635.03;;;16.55;48.08
34979;BME280;21185;50.978;13.720;2023-04-22T19:45:55;97633.44;;;16.54;48.26
34979;BME280;21185;50.978;13.720;2023-04-22T19:50:58;97632.25;;;16.50;48.52
34979;BME280;21185;50.978;13.720;2023-04-22T19:56:01;97630.50;;;16.44;48.77
34979;BME280;21185;50.978;13.720;2023-04-22T20:01:03;97622.50;;;16.39;48.72
34979;BME280;21185;50.978;13.720;2023-04-22T20:06:06;97625.53;;;16.36;48.83
34979;BME280;21185;50.978;13.720;2023-04-22T20:11:09;97619.72;;;16.34;48.89
34979;BME280;21185;50.978;13.720;2023-04-22T20:16:12;97618.91;;;16.33;48.73
34979;BME280;21185;50.978;13.720;2023-04-22T20:21:14;97618.91;;;16.33;48.67
34979;BME280;21185;50.978;13.720;2023-04-22T20:26:19;97618.31;;;16.31;48.50
34979;BME280;21185;50.978;13.720;2023-04-22T20:31:21;97607.47;;;16.28;48.31
34979;BME280;21185;50.978;13.720;2023-04-22T20:36:24;97607.31;;;16.23;48.31
34979;BME280;21185;50.978;13.720;2023-04-22T20:41:27;97611.53;;;16.24;48.20
34979;BME280;21185;50.978;13.720;2023-04-22T20:46:29;97600.06;;;16.25;48.18
34979;BME280;21185;50.978;13.720;2023-04-22T20:51:31;97599.03;;;16.26;48.14
34979;BME280;21185;50.978;13.720;2023-04-22T20:56:33;97588.56;;;16.26;48.07
34979;BME280;21185;50.978;13.720;2023-04-22T21:01:34;97585.75;;;16.27;47.91
34979;BME280;21185;50.978;13.720;2023-04-22T21:06:36;97581.53;;;16.26;47.71
34979;BME280;21185;50.978;13.720;2023-04-22T21:11:39;97575.91;;;16.23;47.75
34979;BME280;21185;50.978;13.720;2023-04-22T21:16:42;97579.19;;;16.18;47.85
34979;BME280;21185;50.978;13.720;2023-04-22T21:21:45;97577.56;;;16.17;47.82
34979;BME280;21185;50.978;13.720;2023-04-22T21:26:49;97572.34;;;16.17;47.80
34979;BME280;21185;50.978;13.720;2023-04-22T21:31:51;97570.53;;;16.17;47.97
34979;BME280;21185;50.978;13.720;2023-04-22T21:37:09;97564.28;;;16.18;47.84
34979;BME280;21185;50.978;13.720;2023-04-22T21:42:11;97567.91;;;16.17;47.58
34979;BME280;21185;50.978;13.720;2023-04-22T21:47:13;97559.47;;;16.15;47.49
34979;BME280;21185;50.978;13.720;2023-04-22T21:52:15;97559.69;;;16.14;47.61
34979;BME280;21185;50.978;13.720;2023-04-22T21:57:17;97562.50;;;16.12;47.77
34979;BME280;21185;50.978;13.720;2023-04-22T22:02:19;97563.53;;;16.11;47.87
34979;BME280;21185;50.978;13.720;2023-04-22T22:07:21;97549.84;;;16.09;48.07
34979;BME280;21185;50.978;13.720;2023-04-22T22:12:23;97550.66;;;16.10;48.08
34979;BME280;21185;50.978;13.720;2023-04-22T22:17:25;97544.63;;;16.09;48.06
34979;BME280;21185;50.978;13.720;2023-04-22T22:22:28;97550.88;;;16.08;48.08
34979;BME280;21185;50.978;13.720;2023-04-22T22:27:30;97543.22;;;16.07;48.47
34979;BME280;21185;50.978;13.720;2023-04-22T22:32:33;97547.09;;;16.04;48.74
34979;BME280;21185;50.978;13.720;2023-04-22T22:37:35;97548.31;;;16.02;48.86
34979;BME280;21185;50.978;13.720;2023-04-22T22:42:37;97547.94;;;15.98;49.16
34979;BME280;21185;50.978;13.720;2023-04-22T22:47:39;97552.00;;;15.94;48.88
34979;BME280;21185;50.978;13.720;2023-04-22T22:52:41;97548.56;;;15.94;48.88
34979;BME280;21185;50.978;13.720;2023-04-22T22:57:43;97552.59;;;15.96;48.91
34979;BME280;21185;50.978;13.720;2023-04-22T23:02:45;97546.53;;;15.96;49.12
34979;BME280;21185;50.978;13.720;2023-04-22T23:07:47;97541.91;;;15.98;49.17
34979;BME280;21185;50.978;13.720;2023-04-22T23:12:49;97541.09;;;15.97;49.17
34979;BME280;21185;50.978;13.720;2023-04-22T23:17:51;97534.25;;;15.96;49.16
34979;BME280;21185;50.978;13.720;2023-04-22T23:22:54;97537.09;;;15.95;49.12
34979;BME280;21185;50.978;13.720;2023-04-22T23:27:57;97537.31;;;15.93;49.26
34979;BME280;21185;50.978;13.720;2023-04-22T23:33:02;97532.50;;;15.90;49.50
34979;BME280;21185;50.978;13.720;2023-04-22T23:38:05;97526.91;;;15.86;49.89
34979;BME280;21185;50.978;13.720;2023-04-22T23:43:07;97529.13;;;15.83;50.20
34979;BME280;21185;50.978;13.720;2023-04-22T23:48:11;97519.69;;;15.82;50.44
34979;BME280;21185;50.978;13.720;2023-04-22T23:53:13;97522.31;;;15.82;50.67
34979;BME280;21185;50.978;13.720;2023-04-22T23:58:15;97521.50;;;15.81;50.80
